Washington, NJ (07882)

3:34 AM EDT on April 25, 2015 (GMT -0400)
Washington Twp | | Change Station
CLOSE
Current Station
Personal Weather Station
Location: Washington, NJ
Elevation: 512 ft
Nearby Weather Stations
Active Advisory: Freeze Warning

Elev 512 ft 40.77 °N, 74.99 °W | Updated 1 minute ago

Clear
Clear
28.4 °F
Feels Like 28 °F
N
0.0
Wind Variable Wind from NNW

Today
High -- | Low -- °F
--% Chance of Precip.
Yesterday
High -- | Low -- °F
Precip. -- in
6:06 AM 7:49 PM
Waxing Crescent, 43% visible
Pressure 29.93 in
Visibility 10.0 miles
Clouds Clear
Windchill 28 °F
Dew Point 22 °F
Humidity 78%
Rainfall 0.00 in
Snow Depth Not available.
UV 0 out of 12
Pollen 10.70 out of 12
Air Quality Not available.
Flu Activity Local Activity
METAR KSMQ 250653Z AUTO 00000KT 10SM CLR M01/M05 A2992 RMK AO2 SLP133 T10111050 TSNO

More Conditions Fewer Conditions

Pressure 29.93 in
Visibility 10.0 miles
Clouds Clear
Windchill 28 °F
Dew Point 22 °F
Humidity 78%
Rainfall 0.00 in
Snow Depth Not available.
UV 0 out of 12
Pollen 10.70 out of 12
Air Quality Not available.
Flu Activity Local Activity
METAR KSMQ 250653Z AUTO 00000KT 10SM CLR M01/M05 A2992 RMK AO2 SLP133 T10111050 TSNO

More Conditions Fewer Conditions

10-Day Weather Forecast

Almanac

Astronomy

Apr. 25, 2015 Rise Set
Actual Time
Civil Twilight
Nautical Twilight
Astronomical Twilight
Moon
Length of Visible Light
Length of Day
Tomorrow will be .
, % of the Moon is Illuminated

Today's Extremes

State Highs State Lows

Community

WunderPhotos

Upload Photos

1,816,624 photos uploaded!

WunderBlogs® & News

Nearby

Air Quality

  Air Quality AQ Index Pollutant
Not available.

Snow Depth

Station Depth Elevation

Earthquake Activity

City Distance Mag. Time & Date
Minimum magnitude displayed is 2.5.

Coastal Water Temperatures

Place Temperature

Stations

Nearby Weather Stations

Station Location Temp. Windchill Dew Point Humidity Wind Precip. Elev Updated Type
                   
Freeze Warning
Statement as of 9:54 PM EDT on April 24, 2015

... Freeze warning remains in effect from 2 am to 8 am EDT
Saturday...

* timing... freezing temperatures are possible late tonight and
early Saturday morning.

* Low temperatures... upper 20s to low 30s.

* Impacts... possible damage to early season plants that are
unprotected.

Precautionary/preparedness actions...

A freeze warning means sub-freezing temperatures are imminent or
highly likely. These conditions will kill crops and other
sensitive vegetation.